Terminal Aerodrome Forecast
Issued by NWS Riverton, WY

Home | Current Version | Previous Version | Text Only | Print | Product List | Glossary On
Versions: 1 2 3 4 5 6 7 8 9 10 11 12
000
FTUS45 KRIW 290526
TAFRIW
TAF
KRIW 290526Z 2906/3006 VRB05KT P6SM FEW120
     FM292100 04010G15KT P6SM SCT090
     FM300400 VRB06KT P6SM FEW110=

USA.gov is the U.S. government's official web portal to all federal, state and local government web resources and services.